Weather at Centre Hospitalier Heliport

Public forecast

Using degrees Celsius for public forecast. Weather courtesy of forecast.io.

Closest aviation weather report (METAR) to Centre Hospitalier Heliport

Closest report is Torino-Aeritalia Airport, 42.6 nm (78.9 km) ENE. Retrieved 2020/09/19 12:50 UTC (1 hour ago):

LIMA 191250Z 03003KT 330V110 9999 SCT045 24/15 Q1019

Closest aviation forecast (TAF) to Centre Hospitalier Heliport

Closest forecast is Turin Airport, 46.6 nm (86.3 km) ENE. Retrieved 2020/09/19 12:00 UTC (2 hours ago):

TAF LIMF 191100Z 1912/2012 VRB06KT 9999 SCT050 TEMPO 2005/2012 SHRA